Main page
METAR-TAF:

METAR-TAF

Airports :

Robert J. Miller Air Park

Ocean County, New Jersey, United States

latitude: 39-55-39N, longitude: 074-17-33W, elevation: 82 ft

Current weather observation

The report was made 19 minutes ago, at 17:03 UTC
Wind 6 mph from the North
Temperature 57°F
Humidity 100%
Pressure 30.03 in. Hg
Visibility: 5 miles
Overcast at a height of 2800 ft
light rain, mist

METAR: KMJX 221703Z AUTO 36005KT 5SM -RA BR OVC028 14/14 A3003 RMK AO2 P0001

Time: 13:22 (17:22 UTC)


TAF: missing

Weather observations and forecasts of more than 4000 airports (METAR and TAF reports).

The available stations are represented by yellow and red dots on the map.

Hover mouse over dot to see the name of the station.

Then click to see weather observations and forecasts.

To change the map : click on the green buttons with a black cross to zoom in, on the green button with a dash to zoom out, or on the green arrows for adjacent maps.


METAR-TAF: